Peleus — V2FV2 — position and weather

sailwx.info

Track history (hours):
 
Tides and Currents Weather Stations Pressure Air Temp Water Temp Dewpoint Dewpoint Depression Visibility Wind Speed Wind Dir Waves Ship Positions

Peleus

Last reported at 2017-Feb-24 14:28 UTC. Time now 2017-Feb-24 15:23 UTC.
Position N 52°24' E 004°52'.

Length 88 m; draft 5.5 m.

Type: Cargo ship. MMSI: 305810000.

Date/timePositionNaut miles runAvg speedWind from/ knotsBaromVisibWave heightAir tempDewpointWater temp
2017-Feb-24 14:28N 52°24' E 004°52'0 0.0
2017-Feb-24 13:31N 52°24' E 004°52'0 0.0
2017-Feb-24 12:31N 52°24' E 004°52'0 0.0
2017-Feb-24 11:31N 52°24' E 004°52'0 0.0
2017-Feb-24 10:31N 52°24' E 004°52'0 0.0
2017-Feb-24 09:31N 52°24' E 004°52'0 0.0
2017-Feb-24 08:31N 52°24' E 004°52'0 0.0
2017-Feb-24 07:31N 52°24' E 004°52'0 0.0
2017-Feb-24 06:33N 52°24' E 004°52'3 3.2
2017-Feb-24 05:33N 52°26' E 004°47'7 6.9
2017-Feb-24 04:33N 52°28' E 004°36'4 4.1
2017-Feb-24 03:34N 52°28' E 004°30'5 4.7
2017-Feb-24 02:33N 52°29' E 004°22'3 3.0
2017-Feb-24 01:33N 52°29' E 004°17'4 3.9
2017-Feb-24 00:33N 52°27' E 004°11'1 0.8
2017-Feb-23 23:33N 52°28' E 004°11'0 0.3
2017-Feb-23 22:33N 52°28' E 004°11'0 0.4
2017-Feb-23 21:33N 52°27' E 004°10'0 0.3
2017-Feb-23 20:33N 52°27' E 004°10'0 0.1
2017-Feb-23 19:33N 52°27' E 004°10'0 0.1
2017-Feb-23 18:33N 52°27' E 004°10'1 0.5
2017-Feb-23 17:33N 52°27' E 004°09'1 0.6
2017-Feb-23 16:34N 52°28' E 004°09'2 2.2
2017-Feb-23 15:34N 52°29' E 004°06'8 7.7
2017-Feb-23 14:33N 52°26' E 003°54'23 9.9
2017-Feb-23 12:15N 52°14' E 003°22'710.1
2017-Feb-23 11:33N 52°10' E 003°13'1010.3
2017-Feb-23 10:32N 52°03' E 003°01'38 9.2
2017-Feb-23 06:22N 51°33' E 002°21'7 8.1
2017-Feb-23 05:33N 51°28' E 002°15'8 8.2
2017-Feb-23 04:33N 51°20' E 002°10'8 8.3
2017-Feb-23 03:33N 51°13' E 002°03'9 8.7
2017-Feb-23 02:34N 51°08' E 001°51'9 8.9
2017-Feb-23 01:33N 51°02' E 001°41'10 9.2
2017-Feb-23 00:30N 50°55' E 001°30'66 8.9
2017-Feb-22 17:05N 50°19' E 000°04'510.3
2017-Feb-22 16:33N 50°17' W 000°04'32 9.5
2017-Feb-22 13:08N 50°09' W 000°53'5 8.5
2017-Feb-22 12:33N 50°07' W 001°01'8 8.2
2017-Feb-22 11:33N 50°06' W 001°13'8 7.9
2017-Feb-22 10:33N 50°04' W 001°25'8 8.2
2017-Feb-22 09:34N 50°02' W 001°37'9 8.6
2017-Feb-22 08:33N 49°59' W 001°50'10 9.5
2017-Feb-22 07:30N 49°57' W 002°05'5510.2
2017-Feb-22 02:06N 49°36' W 003°24'6 9.9
2017-Feb-22 01:29N 49°33' W 003°33'9 9.9
2017-Feb-22 00:33N 49°28' W 003°45'10 9.7
2017-Feb-21 23:29N 49°24' W 003°59'9 9.7
2017-Feb-21 22:33N 49°19' W 004°11'29 9.4
2017-Feb-21 19:25N 49°04' W 004°50'10 9.0
2017-Feb-21 18:15N 48°59' W 005°03'6 8.9
2017-Feb-21 17:33N 48°55' W 005°12'9 8.8
2017-Feb-21 16:31N 48°50' W 005°23'9 9.0
2017-Feb-21 15:33N 48°46' W 005°34'27 8.9
2017-Feb-21 12:33N 48°23' W 005°54'9 9.4
2017-Feb-21 11:33N 48°14' W 006°01'10 9.6
2017-Feb-21 10:34N 48°06' W 006°08'12 9.6
2017-Feb-21 09:18N 47°55' W 006°16'7 9.6
2017-Feb-21 08:33N 47°49' W 006°22'9 9.5
2017-Feb-21 07:33N 47°41' W 006°29'9 9.3
2017-Feb-21 06:33N 47°33' W 006°36'9 8.9
2017-Feb-21 05:33N 47°25' W 006°41'  
2017-Feb-18 16:27N 39°22' W 009°50'8 8.6
2017-Feb-18 15:33N 39°14' W 009°50'9 8.6
2017-Feb-18 14:34N 39°06' W 009°50'9 8.6
2017-Feb-18 13:33N 38°57' W 009°51'9 8.7
2017-Feb-18 12:33N 38°49' W 009°51'9 8.7
2017-Feb-18 11:33N 38°40' W 009°50'9 9.2
2017-Feb-18 10:33N 38°31' W 009°48'10 9.7
2017-Feb-18 09:33N 38°21' W 009°45'9 9.3
2017-Feb-18 08:33N 38°12' W 009°42'9 9.3
2017-Feb-18 07:33N 38°03' W 009°40'9 9.4
2017-Feb-18 06:33N 37°54' W 009°37'9 9.3
2017-Feb-18 05:33N 37°45' W 009°34'9 9.4
2017-Feb-18 04:33N 37°36' W 009°32'9 9.2
2017-Feb-18 03:33N 37°27' W 009°29'18 9.1
2017-Feb-18 01:32N 37°09' W 009°23'  
Track history (hours):
 
Tides and Currents Weather Stations Pressure Air Temp Water Temp Dewpoint Dewpoint Depression Visibility Wind Speed Wind Dir Waves Ship Positions

Peleus

Last reported at 2017-Feb-24 14:28 UTC. Time now 2017-Feb-24 15:23 UTC.
Position N 52°24' E 004°52'.

Length 88 m; draft 5.5 m.

Type: Cargo ship. MMSI: 305810000.

Date/timePositionNaut miles runAvg speedWind from/ knotsBaromVisibWave heightAir tempDewpointWater temp
2017-Feb-24 14:28N 52°24' E 004°52'0 0.0
2017-Feb-24 13:31N 52°24' E 004°52'0 0.0
2017-Feb-24 12:31N 52°24' E 004°52'0 0.0
2017-Feb-24 11:31N 52°24' E 004°52'0 0.0
2017-Feb-24 10:31N 52°24' E 004°52'0 0.0
2017-Feb-24 09:31N 52°24' E 004°52'0 0.0
2017-Feb-24 08:31N 52°24' E 004°52'0 0.0
2017-Feb-24 07:31N 52°24' E 004°52'0 0.0
2017-Feb-24 06:33N 52°24' E 004°52'3 3.2
2017-Feb-24 05:33N 52°26' E 004°47'7 6.9
2017-Feb-24 04:33N 52°28' E 004°36'4 4.1
2017-Feb-24 03:34N 52°28' E 004°30'5 4.7
2017-Feb-24 02:33N 52°29' E 004°22'3 3.0
2017-Feb-24 01:33N 52°29' E 004°17'4 3.9
2017-Feb-24 00:33N 52°27' E 004°11'1 0.8
2017-Feb-23 23:33N 52°28' E 004°11'0 0.3
2017-Feb-23 22:33N 52°28' E 004°11'0 0.4
2017-Feb-23 21:33N 52°27' E 004°10'0 0.3
2017-Feb-23 20:33N 52°27' E 004°10'0 0.1
2017-Feb-23 19:33N 52°27' E 004°10'0 0.1
2017-Feb-23 18:33N 52°27' E 004°10'1 0.5
2017-Feb-23 17:33N 52°27' E 004°09'1 0.6
2017-Feb-23 16:34N 52°28' E 004°09'2 2.2
2017-Feb-23 15:34N 52°29' E 004°06'8 7.7
2017-Feb-23 14:33N 52°26' E 003°54'23 9.9
2017-Feb-23 12:15N 52°14' E 003°22'710.1
2017-Feb-23 11:33N 52°10' E 003°13'1010.3
2017-Feb-23 10:32N 52°03' E 003°01'38 9.2
2017-Feb-23 06:22N 51°33' E 002°21'7 8.1
2017-Feb-23 05:33N 51°28' E 002°15'8 8.2
2017-Feb-23 04:33N 51°20' E 002°10'8 8.3
2017-Feb-23 03:33N 51°13' E 002°03'9 8.7
2017-Feb-23 02:34N 51°08' E 001°51'9 8.9
2017-Feb-23 01:33N 51°02' E 001°41'10 9.2
2017-Feb-23 00:30N 50°55' E 001°30'66 8.9
2017-Feb-22 17:05N 50°19' E 000°04'510.3
2017-Feb-22 16:33N 50°17' W 000°04'32 9.5
2017-Feb-22 13:08N 50°09' W 000°53'5 8.5
2017-Feb-22 12:33N 50°07' W 001°01'8 8.2
2017-Feb-22 11:33N 50°06' W 001°13'8 7.9
2017-Feb-22 10:33N 50°04' W 001°25'8 8.2
2017-Feb-22 09:34N 50°02' W 001°37'9 8.6
2017-Feb-22 08:33N 49°59' W 001°50'10 9.5
2017-Feb-22 07:30N 49°57' W 002°05'5510.2
2017-Feb-22 02:06N 49°36' W 003°24'6 9.9
2017-Feb-22 01:29N 49°33' W 003°33'9 9.9
2017-Feb-22 00:33N 49°28' W 003°45'10 9.7
2017-Feb-21 23:29N 49°24' W 003°59'9 9.7
2017-Feb-21 22:33N 49°19' W 004°11'29 9.4
2017-Feb-21 19:25N 49°04' W 004°50'10 9.0
2017-Feb-21 18:15N 48°59' W 005°03'6 8.9
2017-Feb-21 17:33N 48°55' W 005°12'9 8.8
2017-Feb-21 16:31N 48°50' W 005°23'9 9.0
2017-Feb-21 15:33N 48°46' W 005°34'27 8.9
2017-Feb-21 12:33N 48°23' W 005°54'9 9.4
2017-Feb-21 11:33N 48°14' W 006°01'10 9.6
2017-Feb-21 10:34N 48°06' W 006°08'12 9.6
2017-Feb-21 09:18N 47°55' W 006°16'7 9.6
2017-Feb-21 08:33N 47°49' W 006°22'9 9.5
2017-Feb-21 07:33N 47°41' W 006°29'9 9.3
2017-Feb-21 06:33N 47°33' W 006°36'9 8.9
2017-Feb-21 05:33N 47°25' W 006°41'  
2017-Feb-18 16:27N 39°22' W 009°50'8 8.6
2017-Feb-18 15:33N 39°14' W 009°50'9 8.6
2017-Feb-18 14:34N 39°06' W 009°50'9 8.6
2017-Feb-18 13:33N 38°57' W 009°51'9 8.7
2017-Feb-18 12:33N 38°49' W 009°51'9 8.7
2017-Feb-18 11:33N 38°40' W 009°50'9 9.2
2017-Feb-18 10:33N 38°31' W 009°48'10 9.7
2017-Feb-18 09:33N 38°21' W 009°45'9 9.3
2017-Feb-18 08:33N 38°12' W 009°42'9 9.3
2017-Feb-18 07:33N 38°03' W 009°40'9 9.4
2017-Feb-18 06:33N 37°54' W 009°37'9 9.3
2017-Feb-18 05:33N 37°45' W 009°34'9 9.4
2017-Feb-18 04:33N 37°36' W 009°32'9 9.2
2017-Feb-18 03:33N 37°27' W 009°29'18 9.1
2017-Feb-18 01:32N 37°09' W 009°23'  

Dump ship's entire track history